Time;durP1;ratioP1;P1;durP2;ratioP2;P2;SDS_P1;SDS_P2;PMS_P1;PMS_P2;Temp;Humidity;BMP_temperature;BMP_pressure;BME280_temperature;BME280_humidity;BME280_pressure;Samples;Min_cycle;Max_cycle;Signal;HPM_P1;HPM_P2
2023/05/27 00:01:23;;;;;;;8.35;5.47;;;13.60;99.90;;;;;;5056107;28;20392;-73
2023/05/27 00:03:48;;;;;;;8.32;5.85;;;13.40;99.90;;;;;;5056269;28;20044;-73
2023/05/27 00:06:14;;;;;;;7.88;5.53;;;13.30;99.90;;;;;;5056201;28;20056;-72
2023/05/27 00:08:40;;;;;;;6.57;4.80;;;13.20;99.90;;;;;;5055949;28;20494;-73
2023/05/27 00:11:05;;;;;;;7.90;5.38;;;13.10;99.90;;;;;;5056120;28;20163;-73
2023/05/27 00:13:31;;;;;;;8.18;5.63;;;13.10;99.90;;;;;;5055787;28;20028;-73
2023/05/27 00:15:57;;;;;;;9.20;5.85;;;13.10;99.90;;;;;;5055353;28;20037;-73
2023/05/27 00:18:22;;;;;;;9.05;6.35;;;13.00;99.90;;;;;;5056018;28;20067;-73
2023/05/27 00:20:48;;;;;;;8.98;5.97;;;13.00;99.90;;;;;;5055752;28;20417;-72
2023/05/27 00:23:14;;;;;;;9.25;6.18;;;13.00;99.90;;;;;;5055700;28;20033;-73
2023/05/27 00:25:40;;;;;;;10.68;7.00;;;13.10;99.90;;;;;;5055672;28;20035;-73
2023/05/27 00:28:06;;;;;;;9.45;6.63;;;13.10;99.90;;;;;;5055316;28;20045;-73
2023/05/27 00:30:32;;;;;;;8.85;5.85;;;13.10;99.90;;;;;;5055524;28;20029;-73
2023/05/27 00:32:57;;;;;;;10.07;5.68;;;13.10;99.90;;;;;;5055713;28;20393;-73
2023/05/27 00:35:23;;;;;;;9.27;5.78;;;13.20;99.90;;;;;;5021056;28;20396;-73
2023/05/27 00:37:49;;;;;;;10.02;6.10;;;13.20;99.90;;;;;;5055928;28;20539;-73
2023/05/27 00:40:16;;;;;;;11.13;5.68;;;13.10;99.90;;;;;;5055391;28;20033;-73
2023/05/27 00:42:42;;;;;;;7.35;5.13;;;13.10;99.90;;;;;;5055398;28;20025;-73
2023/05/27 00:45:08;;;;;;;7.47;5.32;;;13.10;99.90;;;;;;5037236;28;20172;-73
2023/05/27 00:47:34;;;;;;;9.85;6.35;;;13.00;99.90;;;;;;5055256;28;20040;-74
2023/05/27 00:50:03;;;;;;;11.88;5.85;;;13.00;99.90;;;;;;5055790;28;20392;-73
2023/05/27 00:52:29;;;;;;;10.38;6.07;;;12.90;99.90;;;;;;5055145;28;20025;-73
2023/05/27 00:54:56;;;;;;;10.25;6.28;;;12.90;99.90;;;;;;5055432;28;20365;-73
2023/05/27 00:57:22;;;;;;;9.32;5.80;;;12.90;99.90;;;;;;5037521;28;20025;-73
2023/05/27 00:59:47;;;;;;;7.30;5.38;;;12.80;99.90;;;;;;5054988;28;20021;-73
2023/05/27 01:02:14;;;;;;;9.35;5.72;;;12.80;99.90;;;;;;5054996;28;20029;-73
2023/05/27 01:04:42;;;;;;;9.48;5.72;;;12.70;99.90;;;;;;5055459;28;20029;-73
2023/05/27 01:07:20;;;;;;;8.73;5.55;;;12.70;99.90;;;;;;5035781;28;20029;-73
2023/05/27 01:10:08;;;;;;;8.27;5.72;;;12.60;99.90;;;;;;5054865;28;20039;-73
2023/05/27 01:12:43;;;;;;;8.27;5.82;;;12.40;99.90;;;;;;5055326;28;20053;-73
2023/05/27 01:15:10;;;;;;;8.00;5.60;;;12.30;99.90;;;;;;5054443;28;20024;-73
2023/05/27 01:17:42;;;;;;;8.55;6.00;;;12.20;99.90;;;;;;5054888;28;20029;-73
2023/05/27 01:20:10;;;;;;;;;;;12.10;99.90;;;;;;5038369;28;20033;-72
2023/05/27 01:22:36;;;;;;;10.18;5.80;;;12.10;99.90;;;;;;5054619;28;20003;-73
2023/05/27 01:25:02;;;;;;;10.02;5.90;;;12.10;99.90;;;;;;5054789;28;20469;-73
2023/05/27 01:27:28;;;;;;;7.85;5.50;;;12.10;99.90;;;;;;5054286;28;20115;-73
2023/05/27 01:29:56;;;;;;;7.53;4.85;;;12.10;99.90;;;;;;5036613;28;20090;-73
2023/05/27 01:32:30;;;;;;;7.70;5.57;;;12.10;99.90;;;;;;5037129;28;20025;-73
2023/05/27 01:35:05;;;;;;;7.78;5.65;;;12.20;99.90;;;;;;5054871;28;20053;-73
2023/05/27 01:37:38;;;;;;;9.48;5.45;;;12.20;99.90;;;;;;5036428;28;20021;-72
2023/05/27 01:40:08;;;;;;;7.03;5.13;;;12.30;99.90;;;;;;5054294;28;20028;-72
2023/05/27 01:42:39;;;;;;;7.43;5.00;;;12.30;99.90;;;;;;5054099;28;20074;-72
2023/05/27 01:45:07;;;;;;;10.00;5.40;;;12.40;99.90;;;;;;5036263;28;20033;-72
2023/05/27 01:47:33;;;;;;;8.70;5.20;;;12.40;99.90;;;;;;5053947;28;20033;-72
2023/05/27 01:49:59;;;;;;;10.00;5.75;;;12.40;99.90;;;;;;5053703;28;20025;-72
2023/05/27 01:52:25;;;;;;;6.78;4.90;;;12.40;99.90;;;;;;5053965;28;20035;-72
2023/05/27 01:54:51;;;;;;;9.18;5.72;;;12.40;99.90;;;;;;5056632;28;20100;-73
2023/05/27 01:57:18;;;;;;;8.55;5.38;;;12.40;99.90;;;;;;5053853;28;20374;-73
2023/05/27 01:59:43;;;;;;;8.88;5.38;;;12.40;99.90;;;;;;5035823;28;20025;-73
2023/05/27 02:02:09;;;;;;;8.20;5.63;;;12.40;99.90;;;;;;5053757;28;20051;-73
2023/05/27 02:04:35;;;;;;;7.80;5.78;;;12.40;99.90;;;;;;5053854;28;20496;-73
2023/05/27 02:07:01;;;;;;;8.55;5.35;;;12.40;99.90;;;;;;5053826;28;20052;-72
2023/05/27 02:09:26;;;;;;;8.40;5.05;;;12.40;99.90;;;;;;5053885;28;20021;-73
2023/05/27 02:11:52;;;;;;;10.65;5.30;;;12.40;99.90;;;;;;5053608;28;20082;-72
2023/05/27 02:14:18;;;;;;;7.07;5.40;;;12.40;99.90;;;;;;5035983;28;20027;-73
2023/05/27 02:16:44;;;;;;;9.45;6.00;;;12.40;99.90;;;;;;5053623;28;20104;-72
2023/05/27 02:19:09;;;;;;;8.30;6.15;;;12.40;99.90;;;;;;5053132;28;20046;-73
2023/05/27 02:21:35;;;;;;;9.57;5.90;;;12.40;99.90;;;;;;5053609;28;20031;-73
2023/05/27 02:24:02;;;;;;;9.45;5.80;;;12.30;99.90;;;;;;5036569;28;20508;-73
2023/05/27 02:26:27;;;;;;;9.40;6.13;;;12.30;99.90;;;;;;5053488;28;20040;-72
2023/05/27 02:28:53;;;;;;;7.72;5.43;;;12.30;99.90;;;;;;5035506;28;20037;-72
2023/05/27 02:31:19;;;;;;;11.63;6.10;;;12.40;99.90;;;;;;5035472;28;20039;-73
2023/05/27 02:33:45;;;;;;;8.30;5.10;;;12.40;99.90;;;;;;5053545;28;20029;-73
2023/05/27 02:36:11;;;;;;;10.63;6.50;;;12.40;99.90;;;;;;5035967;28;20021;-73
2023/05/27 02:38:37;;;;;;;8.98;6.13;;;12.40;99.90;;;;;;5035587;28;20132;-72
2023/05/27 02:41:03;;;;;;;7.85;6.05;;;12.50;99.90;;;;;;5053359;28;20025;-73
2023/05/27 02:43:28;;;;;;;7.13;5.15;;;12.40;99.90;;;;;;5053367;28;20031;-73
2023/05/27 02:45:54;;;;;;;9.25;5.55;;;12.40;99.90;;;;;;5053381;28;20075;-72
2023/05/27 02:48:20;;;;;;;8.38;5.60;;;12.40;99.90;;;;;;5053196;28;20075;-73
2023/05/27 02:50:46;;;;;;;7.32;5.35;;;12.40;99.90;;;;;;5053767;28;20029;-73
2023/05/27 02:53:11;;;;;;;7.63;5.40;;;12.40;99.90;;;;;;5053146;28;20112;-72
2023/05/27 02:55:37;;;;;;;7.07;5.10;;;12.50;99.90;;;;;;5053169;28;20025;-73
2023/05/27 02:58:06;;;;;;;8.60;5.60;;;12.50;99.90;;;;;;5053193;28;20116;-73
2023/05/27 03:00:33;;;;;;;8.82;6.05;;;12.50;99.90;;;;;;5052986;28;20021;-73
2023/05/27 03:02:59;;;;;;;7.90;5.93;;;12.50;99.90;;;;;;5053090;28;20036;-73
2023/05/27 03:05:24;;;;;;;10.70;6.82;;;12.50;99.90;;;;;;5053407;28;20028;-73
2023/05/27 03:07:51;;;;;;;9.38;6.55;;;12.50;99.90;;;;;;5053236;28;20154;-73
2023/05/27 03:10:16;;;;;;;12.25;6.47;;;12.40;99.90;;;;;;5053329;28;20488;-73
2023/05/27 03:12:42;;;;;;;10.75;6.15;;;12.40;99.90;;;;;;5053204;28;20413;-73
2023/05/27 03:15:08;;;;;;;9.85;6.00;;;12.40;99.90;;;;;;5052991;28;20021;-73
2023/05/27 03:17:37;;;;;;;10.52;6.78;;;12.40;99.90;;;;;;5053171;28;20098;-73
2023/05/27 03:20:04;;;;;;;13.35;6.82;;;12.40;99.90;;;;;;5052956;28;20477;-73
2023/05/27 03:22:30;;;;;;;7.57;6.10;;;12.40;99.90;;;;;;5052924;28;20033;-73
2023/05/27 03:24:55;;;;;;;8.25;6.18;;;12.40;99.90;;;;;;5053150;28;20033;-73
2023/05/27 03:27:21;;;;;;;8.00;5.50;;;12.40;99.90;;;;;;5052667;28;20469;-73
2023/05/27 03:29:47;;;;;;;7.90;5.60;;;12.40;99.90;;;;;;5053590;28;20036;-74
2023/05/27 03:32:13;;;;;;;9.27;5.85;;;12.30;99.90;;;;;;5038387;28;20100;-73
2023/05/27 03:34:38;;;;;;;9.20;6.65;;;12.30;99.90;;;;;;5056646;28;20021;-74
2023/05/27 03:37:04;;;;;;;11.45;6.57;;;12.30;99.90;;;;;;5056752;28;20031;-74
2023/05/27 03:39:30;;;;;;;8.45;6.13;;;12.30;99.90;;;;;;5057066;28;20489;-73
2023/05/27 03:41:56;;;;;;;9.10;6.13;;;12.40;99.90;;;;;;5056785;28;20056;-73
2023/05/27 03:44:22;;;;;;;15.15;7.55;;;12.30;99.90;;;;;;5056142;28;20108;-74
2023/05/27 03:46:47;;;;;;;12.10;7.93;;;12.30;99.90;;;;;;5038326;28;20037;-74
2023/05/27 03:49:13;;;;;;;12.98;8.27;;;12.30;99.90;;;;;;5056198;28;20071;-74
2023/05/27 03:51:38;;;;;;;12.65;7.97;;;12.30;99.90;;;;;;5058828;28;20033;-73
2023/05/27 03:54:04;;;;;;;10.43;7.63;;;12.30;99.90;;;;;;5038536;28;20036;-73
2023/05/27 03:56:30;;;;;;;9.57;7.50;;;12.30;99.90;;;;;;5056241;28;20049;-74
2023/05/27 03:58:56;;;;;;;8.95;6.45;;;12.20;99.90;;;;;;5056173;28;20040;-74
2023/05/27 04:01:22;;;;;;;8.93;6.10;;;12.20;99.90;;;;;;5037968;28;20032;-73
2023/05/27 04:03:48;;;;;;;10.70;6.38;;;12.10;99.90;;;;;;5038275;28;20025;-73
2023/05/27 04:06:15;;;;;;;10.30;6.38;;;12.10;99.90;;;;;;5056072;28;20032;-74
2023/05/27 04:08:41;;;;;;;8.80;5.85;;;12.10;99.90;;;;;;5056057;28;20032;-74
2023/05/27 04:11:09;;;;;;;8.55;5.90;;;12.10;99.90;;;;;;5056022;28;20402;-73
2023/05/27 04:13:35;;;;;;;9.52;6.07;;;12.10;99.90;;;;;;5055842;28;20104;-74
2023/05/27 04:16:01;;;;;;;7.93;6.00;;;12.10;99.90;;;;;;5055650;28;20116;-74
2023/05/27 04:18:26;;;;;;;9.13;6.40;;;12.10;99.90;;;;;;5056010;28;20028;-74
2023/05/27 04:20:52;;;;;;;9.32;6.03;;;12.10;99.90;;;;;;5055783;28;20032;-73
2023/05/27 04:23:18;;;;;;;8.65;6.22;;;12.10;99.90;;;;;;5037816;28;20443;-73
2023/05/27 04:25:44;;;;;;;9.32;6.22;;;12.10;99.90;;;;;;5038545;28;20037;-74
2023/05/27 04:28:10;;;;;;;15.77;6.85;;;12.10;99.90;;;;;;5055369;28;20044;-74
2023/05/27 04:30:36;;;;;;;10.48;6.72;;;12.10;99.90;;;;;;5037641;28;20033;-74
2023/05/27 04:33:02;;;;;;;11.63;7.93;;;12.10;99.90;;;;;;5055488;28;20066;-73
2023/05/27 04:35:30;;;;;;;9.68;6.88;;;12.10;99.90;;;;;;5055534;28;20017;-74
2023/05/27 04:37:58;;;;;;;13.48;7.28;;;12.00;99.90;;;;;;5055796;28;20029;-73
2023/05/27 04:40:24;;;;;;;12.75;7.28;;;12.00;99.90;;;;;;5055420;28;20092;-73
2023/05/27 04:42:51;;;;;;;10.25;6.32;;;11.90;99.90;;;;;;5055680;28;20056;-74
2023/05/27 04:45:18;;;;;;;7.85;6.10;;;11.90;99.90;;;;;;5055380;28;20021;-74
2023/05/27 04:47:44;;;;;;;12.40;7.35;;;11.90;99.90;;;;;;5055101;28;20369;-74
2023/05/27 04:50:10;;;;;;;13.27;6.40;;;11.90;99.90;;;;;;5055209;28;20044;-73
2023/05/27 04:52:40;;;;;;;10.95;7.28;;;11.90;99.90;;;;;;5055392;28;20039;-74
2023/05/27 04:55:08;;;;;;;10.88;6.97;;;12.00;99.90;;;;;;5055606;28;20049;-74
2023/05/27 04:57:35;;;;;;;10.32;7.22;;;11.90;99.90;;;;;;5037039;28;20439;-74
2023/05/27 05:02:34;;;;;;;12.00;6.75;;;11.90;99.90;;;;;;5055185;28;20039;-73
2023/05/27 05:05:04;;;;;;;10.68;7.68;;;11.80;99.90;;;;;;5054912;28;20033;-74
2023/05/27 05:07:30;;;;;;;14.32;7.53;;;11.80;99.90;;;;;;5054793;28;20028;-74
2023/05/27 05:09:57;;;;;;;10.88;7.57;;;11.90;99.90;;;;;;5055112;28;20029;-73
2023/05/27 05:12:23;;;;;;;10.23;7.35;;;12.00;99.90;;;;;;5055228;28;20120;-73
2023/05/27 05:14:49;;;;;;;13.30;7.10;;;12.00;99.90;;;;;;5054531;28;20025;-74
2023/05/27 05:17:15;;;;;;;11.32;6.57;;;12.10;99.90;;;;;;5054838;28;20385;-74
2023/05/27 05:19:40;;;;;;;10.02;6.75;;;12.10;99.90;;;;;;5054513;28;20492;-76
2023/05/27 05:22:06;;;;;;;9.57;6.50;;;12.20;99.90;;;;;;5054026;28;20033;-74
2023/05/27 05:24:31;;;;;;;13.77;7.47;;;12.20;99.90;;;;;;5054847;28;20485;-73
2023/05/27 05:26:57;;;;;;;12.70;6.45;;;12.30;99.90;;;;;;5053776;28;20021;-74
2023/05/27 05:29:23;;;;;;;8.75;5.75;;;12.30;99.90;;;;;;5053521;28;20029;-74
2023/05/27 05:31:49;;;;;;;9.45;6.43;;;12.40;99.90;;;;;;5053626;28;20108;-73
2023/05/27 05:34:14;;;;;;;9.55;6.55;;;12.40;99.90;;;;;;5034396;28;20040;-74
2023/05/27 05:36:40;;;;;;;11.25;7.10;;;12.40;99.90;;;;;;5054150;28;20020;-73
2023/05/27 05:39:06;;;;;;;11.30;7.32;;;12.50;99.90;;;;;;5019720;28;20099;-73
2023/05/27 05:41:31;;;;;;;15.38;7.75;;;12.50;99.90;;;;;;5056416;28;20012;-74
2023/05/27 05:43:57;;;;;;;10.30;7.38;;;12.50;99.90;;;;;;5074107;28;20040;-74
2023/05/27 05:46:23;;;;;;;13.18;7.20;;;12.60;99.90;;;;;;5073845;28;20033;-74
2023/05/27 05:48:52;;;;;;;10.00;6.90;;;12.60;99.90;;;;;;5074026;28;20074;-74
2023/05/27 05:51:17;;;;;;;12.55;7.43;;;12.60;99.90;;;;;;5056631;28;20024;-74
2023/05/27 05:53:43;;;;;;;11.25;7.78;;;12.70;99.90;;;;;;5054311;28;20028;-74
2023/05/27 05:56:09;;;;;;;10.60;7.13;;;12.80;99.90;;;;;;5054225;28;20025;-74
2023/05/27 05:58:34;;;;;;;10.75;7.57;;;12.80;99.90;;;;;;5053673;28;20036;-74
2023/05/27 06:01:00;;;;;;;12.27;7.30;;;12.90;99.90;;;;;;5044252;28;20535;-74
2023/05/27 06:03:26;;;;;;;12.35;7.20;;;12.90;99.90;;;;;;5051466;28;20041;-74
2023/05/27 06:05:51;;;;;;;11.63;7.65;;;13.00;99.90;;;;;;5055719;28;20052;-75
2023/05/27 06:08:17;;;;;;;11.60;7.28;;;13.10;99.90;;;;;;5052164;28;20070;-75
2023/05/27 06:10:43;;;;;;;12.77;6.85;;;13.20;99.90;;;;;;5062138;28;20524;-74
2023/05/27 06:13:10;;;;;;;11.43;7.00;;;13.20;99.90;;;;;;5053120;28;20033;-74
2023/05/27 06:15:37;;;;;;;12.90;7.32;;;13.30;99.90;;;;;;5034496;28;20378;-74
2023/05/27 06:18:03;;;;;;;12.13;7.82;;;13.40;99.90;;;;;;5051896;28;20025;-74
2023/05/27 06:20:29;;;;;;;10.27;7.15;;;13.50;99.90;;;;;;5052127;28;20028;-74
2023/05/27 06:22:55;;;;;;;12.27;7.03;;;13.60;99.90;;;;;;5053332;28;20028;-75
2023/05/27 06:25:20;;;;;;;12.68;7.97;;;13.70;99.90;;;;;;5054821;28;20106;-74
2023/05/27 06:27:46;;;;;;;10.57;6.93;;;13.70;99.90;;;;;;5054738;28;20040;-74
2023/05/27 06:30:12;;;;;;;11.80;6.95;;;13.80;99.90;;;;;;5054677;28;20033;-74
2023/05/27 06:32:38;;;;;;;10.85;6.60;;;13.90;99.90;;;;;;5053398;28;20063;-74
2023/05/27 06:35:04;;;;;;;13.52;7.30;;;14.00;99.90;;;;;;5035425;28;20483;-74
2023/05/27 06:37:30;;;;;;;11.18;7.40;;;14.10;99.90;;;;;;5052539;28;20476;-74
2023/05/27 06:39:55;;;;;;;10.77;7.45;;;14.20;99.90;;;;;;5049778;28;20048;-74
2023/05/27 06:42:22;;;;;;;10.63;7.28;;;14.30;99.90;;;;;;5034117;28;20041;-75
2023/05/27 06:44:48;;;;;;;10.60;6.55;;;14.40;99.90;;;;;;5035447;28;20027;-75
2023/05/27 06:47:14;;;;;;;12.13;6.75;;;14.50;99.90;;;;;;5052898;28;20036;-75
2023/05/27 06:49:40;;;;;;;11.82;6.82;;;14.50;99.90;;;;;;5052637;28;20025;-74
2023/05/27 06:52:06;;;;;;;8.93;6.93;;;14.60;99.90;;;;;;5035095;28;20037;-75
2023/05/27 06:54:32;;;;;;;11.75;6.63;;;14.70;99.90;;;;;;5035372;28;20098;-74
2023/05/27 06:56:58;;;;;;;11.88;6.90;;;14.70;99.90;;;;;;5035370;28;20071;-74
2023/05/27 06:59:23;;;;;;;12.40;7.13;;;14.80;99.90;;;;;;5053365;28;20516;-74
2023/05/27 07:01:49;;;;;;;12.57;6.95;;;15.00;99.90;;;;;;5053054;28;20385;-75
2023/05/27 07:04:18;;;;;;;9.98;6.47;;;15.10;99.90;;;;;;5035970;28;20393;-74
2023/05/27 07:06:43;;;;;;;13.05;7.00;;;15.10;99.90;;;;;;5057470;28;20075;-74
2023/05/27 07:09:11;;;;;;;12.38;6.88;;;15.20;99.90;;;;;;5057524;28;20037;-74
2023/05/27 07:11:36;;;;;;;11.13;7.47;;;15.30;99.90;;;;;;5039788;28;20034;-74
2023/05/27 07:14:02;;;;;;;11.25;6.75;;;15.50;99.90;;;;;;5057052;28;20036;-74
2023/05/27 07:16:28;;;;;;;10.43;6.80;;;15.60;99.90;;;;;;5022786;28;20112;-74
2023/05/27 07:18:54;;;;;;;12.48;6.55;;;15.70;99.90;;;;;;5057045;28;20384;-74
2023/05/27 07:21:19;;;;;;;12.25;6.55;;;15.90;99.90;;;;;;5057597;28;20545;-75
2023/05/27 07:23:45;;;;;;;11.60;7.10;;;16.00;99.90;;;;;;5057030;28;20108;-75
2023/05/27 07:26:11;;;;;;;14.02;6.93;;;16.20;99.90;;;;;;5057258;28;20107;-75
2023/05/27 07:28:37;;;;;;;11.73;6.47;;;16.30;99.90;;;;;;5057246;28;20055;-75
2023/05/27 07:31:03;;;;;;;9.68;6.43;;;16.40;99.90;;;;;;5057033;28;20383;-75
2023/05/27 07:33:29;;;;;;;11.73;6.63;;;16.50;99.90;;;;;;5056754;28;20362;-75
2023/05/27 07:35:55;;;;;;;12.80;6.78;;;16.60;99.90;;;;;;5056215;28;20036;-74
2023/05/27 07:38:20;;;;;;;10.13;6.38;;;16.70;99.90;;;;;;5056372;28;20111;-75
2023/05/27 07:40:46;;;;;;;10.10;6.70;;;16.80;99.90;;;;;;5058765;28;20050;-75
2023/05/27 07:43:11;;;;;;;9.48;6.20;;;17.00;99.90;;;;;;5056141;28;20037;-75
2023/05/27 07:45:37;;;;;;;12.93;6.38;;;17.10;99.90;;;;;;5056027;28;20083;-75
2023/05/27 07:48:03;;;;;;;11.20;6.55;;;17.30;99.90;;;;;;5052301;28;20527;-75
2023/05/27 07:50:28;;;;;;;14.82;7.18;;;17.30;99.90;;;;;;5056258;28;20385;-75
2023/05/27 07:52:54;;;;;;;11.13;6.38;;;17.50;99.90;;;;;;5056513;28;20029;-75
2023/05/27 07:55:20;;;;;;;11.13;6.22;;;17.60;99.90;;;;;;5056732;28;20489;-74
2023/05/27 07:57:46;;;;;;;10.10;6.00;;;17.70;99.90;;;;;;5056751;28;20035;-74
2023/05/27 08:00:12;;;;;;;10.88;5.63;;;17.90;99.90;;;;;;5056586;28;20025;-74
2023/05/27 08:02:39;;;;;;;9.57;6.32;;;18.10;99.90;;;;;;5056832;28;20053;-75
2023/05/27 08:05:05;;;;;;;16.20;6.57;;;18.30;99.90;;;;;;5057311;28;20029;-75
2023/05/27 08:07:31;;;;;;;8.43;6.40;;;18.40;99.90;;;;;;5057234;28;20025;-74
2023/05/27 08:09:56;;;;;;;12.05;6.68;;;18.50;99.90;;;;;;5056028;28;20036;-74
2023/05/27 08:12:22;;;;;;;42.22;12.77;;;18.60;99.90;;;;;;5038817;28;20068;-74
2023/05/27 08:14:49;;;;;;;13.77;6.40;;;18.80;99.90;;;;;;5036299;28;20030;-74
2023/05/27 08:17:15;;;;;;;9.52;6.18;;;18.80;99.90;;;;;;5035304;28;20068;-75
2023/05/27 08:19:41;;;;;;;11.88;5.93;;;18.90;99.90;;;;;;5046939;28;20029;-75
2023/05/27 08:22:10;;;;;;;10.70;6.50;;;19.00;99.90;;;;;;5055696;28;20381;-74
2023/05/27 08:24:36;;;;;;;13.20;6.75;;;19.10;99.90;;;;;;5055797;28;20500;-74
2023/05/27 08:27:02;;;;;;;10.73;6.03;;;19.30;99.90;;;;;;5056050;28;20029;-74
2023/05/27 08:29:30;;;;;;;13.77;6.25;;;19.50;99.90;;;;;;5054835;28;20480;-74
2023/05/27 08:31:56;;;;;;;9.68;6.30;;;19.60;99.90;;;;;;5055641;28;20029;-74
2023/05/27 08:34:22;;;;;;;9.10;5.72;;;19.70;99.90;;;;;;5055977;28;20025;-74
2023/05/27 08:36:48;;;;;;;11.68;5.70;;;19.80;99.90;;;;;;5056683;28;20393;-74
2023/05/27 08:39:14;;;;;;;9.20;5.32;;;19.90;99.90;;;;;;5056236;28;20025;-74
2023/05/27 08:41:40;;;;;;;12.13;5.40;;;20.00;99.90;;;;;;5055654;28;20032;-74
2023/05/27 08:44:06;;;;;;;8.02;4.88;;;20.20;98.30;;;;;;5055878;28;20491;-74
2023/05/27 08:46:33;;;;;;;7.95;5.32;;;20.30;97.00;;;;;;5055124;28;20512;-73
2023/05/27 08:48:59;;;;;;;9.77;5.55;;;20.40;97.10;;;;;;5054647;28;20477;-74
2023/05/27 08:51:26;;;;;;;9.38;5.80;;;20.50;98.00;;;;;;5055231;28;20035;-74
2023/05/27 08:53:52;;;;;;;24.30;12.85;;;20.70;98.30;;;;;;5054499;28;20059;-74
2023/05/27 08:56:21;;;;;;;8.20;5.22;;;20.80;97.00;;;;;;5055083;28;20057;-74
2023/05/27 08:58:47;;;;;;;8.55;5.30;;;20.90;95.20;;;;;;5037422;28;20400;-74
2023/05/27 09:01:17;;;;;;;10.57;5.43;;;20.90;95.00;;;;;;5054773;28;20457;-75
2023/05/27 09:03:43;;;;;;;9.73;5.30;;;20.90;94.90;;;;;;5055291;28;20669;-74
2023/05/27 09:06:09;;;;;;;9.32;5.25;;;20.90;94.20;;;;;;5054960;28;20037;-75
2023/05/27 09:08:35;;;;;;;8.63;4.68;;;20.90;94.00;;;;;;5054852;28;20083;-75
2023/05/27 09:11:01;;;;;;;8.85;5.07;;;21.00;92.50;;;;;;5055152;28;20400;-75
2023/05/27 09:13:31;;;;;;;7.88;5.07;;;21.10;92.50;;;;;;5054931;28;20028;-75
2023/05/27 09:16:02;;;;;;;9.40;5.47;;;21.10;93.70;;;;;;5036710;28;20029;-74
2023/05/27 09:18:29;;;;;;;;;;;21.20;92.20;;;;;;5055393;28;20025;-74
2023/05/27 09:20:57;;;;;;;8.20;5.00;;;21.30;91.10;;;;;;5054721;28;19905;-74
2023/05/27 09:23:23;;;;;;;8.55;4.88;;;21.20;92.60;;;;;;5054686;28;20471;-73
2023/05/27 09:25:50;;;;;;;10.95;5.28;;;21.30;91.50;;;;;;5054608;28;20024;-74
2023/05/27 09:28:22;;;;;;;7.10;4.97;;;21.30;91.60;;;;;;5062793;22;20047;-77
2023/05/27 09:31:02;;;;;;;8.73;4.97;;;21.30;90.70;;;;;;5057246;28;20039;-77
2023/05/27 09:33:32;;;;;;;9.13;5.53;;;21.30;90.80;;;;;;5061206;28;20060;-77
2023/05/27 09:36:01;;;;;;;7.97;5.30;;;21.30;90.90;;;;;;5054303;28;20013;-77
2023/05/27 09:38:33;;;;;;;7.63;4.60;;;21.40;92.10;;;;;;5036736;28;20048;-77
2023/05/27 09:41:00;;;;;;;10.50;4.93;;;21.40;90.40;;;;;;5050585;28;20577;-77
2023/05/27 09:43:27;;;;;;;8.43;5.00;;;21.50;87.60;;;;;;5068586;22;20079;-70
2023/05/27 09:45:58;;;;;;;9.57;5.82;;;21.40;90.00;;;;;;5058500;28;20036;-70
2023/05/27 09:48:24;;;;;;;10.13;4.90;;;21.50;90.00;;;;;;5071144;28;20020;-70
2023/05/27 09:50:57;;;;;;;9.23;5.28;;;21.50;88.40;;;;;;5089860;28;20908;-70
2023/05/27 09:53:24;;;;;;;11.55;5.18;;;21.30;86.40;;;;;;5089886;28;20025;-70
2023/05/27 09:55:52;;;;;;;9.98;5.15;;;21.20;87.40;;;;;;5090939;28;20028;-70
2023/05/27 09:58:18;;;;;;;9.68;4.38;;;21.30;88.50;;;;;;5086835;28;20476;-70
2023/05/27 10:00:47;;;;;;;9.68;5.70;;;21.40;86.90;;;;;;5080902;28;20028;-70
2023/05/27 10:03:13;;;;;;;8.77;4.85;;;21.50;85.10;;;;;;5078846;28;20074;-70
2023/05/27 10:05:40;;;;;;;8.98;5.80;;;21.50;84.50;;;;;;5071278;28;20024;-70
2023/05/27 10:08:06;;;;;;;8.75;5.53;;;21.60;86.40;;;;;;5074249;28;20029;-70
2023/05/27 10:10:32;;;;;;;10.07;5.05;;;21.70;85.70;;;;;;5088355;28;20035;-70
2023/05/27 10:12:59;;;;;;;8.43;5.13;;;21.80;83.90;;;;;;5090597;28;20099;-70
2023/05/27 10:15:29;;;;;;;9.45;5.43;;;22.00;83.50;;;;;;5090524;28;20024;-70
2023/05/27 10:17:57;;;;;;;8.35;5.70;;;22.00;79.40;;;;;;5072548;28;20023;-70
2023/05/27 10:20:37;;;;;;;8.90;5.18;;;22.00;81.30;;;;;;5090983;28;20050;-70
2023/05/27 10:23:12;;;;;;;9.82;5.28;;;22.00;82.20;;;;;;5090447;28;20032;-70
2023/05/27 10:25:56;;;;;;;7.65;5.35;;;21.90;82.00;;;;;;5090346;28;20024;-70
2023/05/27 10:28:36;;;;;;;8.35;5.07;;;22.00;80.60;;;;;;5081485;28;20507;-70
2023/05/27 10:31:06;;;;;;;9.05;5.07;;;22.00;80.00;;;;;;5069736;28;20017;-70
2023/05/27 10:33:42;;;;;;;10.95;5.20;;;22.10;83.40;;;;;;5051981;28;20021;-70
2023/05/27 10:36:10;;;;;;;11.10;5.60;;;22.20;82.90;;;;;;5070091;28;20491;-70
2023/05/27 10:38:37;;;;;;;6.75;4.60;;;22.30;81.80;;;;;;5069727;28;20032;-70
2023/05/27 10:41:04;;;;;;;11.07;5.65;;;22.30;80.10;;;;;;5075694;28;20012;-70
2023/05/27 10:43:30;;;;;;;10.13;5.20;;;22.40;80.70;;;;;;5082807;28;20456;-69
2023/05/27 10:46:03;;;;;;;8.48;4.90;;;22.30;79.40;;;;;;5110027;28;19908;-70
2023/05/27 10:48:33;;;;;;;8.20;5.20;;;22.20;78.70;;;;;;5110021;28;20027;-70
2023/05/27 10:50:59;;;;;;;8.52;5.32;;;22.30;82.80;;;;;;5078850;28;19951;-70
2023/05/27 10:53:28;;;;;;;9.70;5.32;;;22.20;78.20;;;;;;5072596;28;20056;-70
2023/05/27 10:55:56;;;;;;;9.53;6.00;;;22.20;80.70;;;;;;5080673;28;20053;-70
2023/05/27 10:58:22;;;;;;;10.93;6.05;;;22.30;86.00;;;;;;5069007;28;20147;-70
2023/05/27 11:00:49;;;;;;;;;;;22.50;85.60;;;;;;5045829;28;20049;-70
2023/05/27 11:03:19;;;;;;;;;;;22.70;83.00;;;;;;5054713;28;20434;-70
2023/05/27 11:05:45;;;;;;;11.15;6.40;;;22.50;79.10;;;;;;5060676;28;19932;-70
2023/05/27 11:08:13;;;;;;;11.20;5.77;;;22.20;80.00;;;;;;5061027;28;20489;-70
2023/05/27 11:10:42;;;;;;;10.40;5.75;;;22.10;80.60;;;;;;5055332;28;20068;-70
2023/05/27 11:13:08;;;;;;;9.77;5.32;;;22.00;81.80;;;;;;5059407;28;20024;-70
2023/05/27 11:15:34;;;;;;;8.40;5.10;;;22.00;82.50;;;;;;5065955;28;20029;-70
2023/05/27 11:18:03;;;;;;;9.88;5.63;;;22.20;82.90;;;;;;5059633;28;20276;-69
2023/05/27 11:20:38;;;;;;;8.13;5.40;;;22.40;81.70;;;;;;5075050;28;20032;-69
2023/05/27 11:23:04;;;;;;;9.60;5.10;;;22.60;80.10;;;;;;5075528;28;20032;-70
2023/05/27 11:25:40;;;;;;;;;;;22.70;80.20;;;;;;5062182;28;20439;-70
2023/05/27 11:28:13;;;;;;;;;;;22.70;79.00;;;;;;5061552;28;19909;-70
2023/05/27 11:30:38;;;;;;;;;;;22.90;78.40;;;;;;5057309;28;19915;-69
2023/05/27 11:33:04;;;;;;;;;;;22.90;78.90;;;;;;5064257;28;20367;-69
2023/05/27 11:35:30;;;;;;;;;;;23.00;79.60;;;;;;5056048;28;20432;-70
2023/05/27 11:37:57;;;;;;;;;;;23.00;80.30;;;;;;5057027;28;19963;-70
2023/05/27 11:40:22;;;;;;;;;;;23.00;78.80;;;;;;5055875;28;19999;-70
2023/05/27 11:42:48;;;;;;;;;;;23.20;76.40;;;;;;5067997;28;20387;-70
2023/05/27 11:45:18;;;;;;;;;;;23.30;77.90;;;;;;5056490;28;20383;-70
2023/05/27 11:47:44;;;;;;;;;;;23.30;78.30;;;;;;5055478;28;19911;-70
2023/05/27 11:50:10;;;;;;;;;;;23.30;76.60;;;;;;5034065;28;19955;-70
2023/05/27 11:52:46;;;;;;;;;;;23.10;75.20;;;;;;5055557;28;19951;-70
2023/05/27 11:55:14;;;;;;;;;;;23.10;76.60;;;;;;5055356;28;20443;-70
2023/05/27 11:57:40;;;;;;;;;;;23.10;79.30;;;;;;5053487;28;19910;-70
2023/05/27 12:00:07;;;;;;;;;;;23.20;78.60;;;;;;5075869;28;19995;-70
2023/05/27 12:02:33;;;;;;;;;;;23.20;77.60;;;;;;5075195;28;19908;-70
2023/05/27 12:04:58;;;;;;;;;;;23.20;77.50;;;;;;5071735;28;19927;-70
2023/05/27 12:07:24;;;;;;;;;;;23.20;77.70;;;;;;5074892;28;19936;-70
2023/05/27 12:09:49;;;;;;;;;;;23.30;77.10;;;;;;5069510;28;20276;-70
2023/05/27 12:12:15;;;;;;;9.43;5.93;;;23.30;77.20;;;;;;5065057;28;19913;-70
2023/05/27 12:14:41;;;;;;;9.20;5.63;;;23.40;76.50;;;;;;5056885;28;20083;-70
2023/05/27 12:17:06;;;;;;;10.35;5.60;;;23.20;74.80;;;;;;5071108;28;20433;-70
2023/05/27 12:19:34;;;;;;;10.85;5.85;;;23.20;76.30;;;;;;5063319;28;20108;-69
2023/05/27 12:22:00;;;;;;;9.82;4.93;;;23.30;75.90;;;;;;5067129;28;20058;-70
2023/05/27 12:24:25;;;;;;;9.63;5.60;;;23.30;76.30;;;;;;5036694;28;20025;-70
2023/05/27 12:26:51;;;;;;;8.85;5.38;;;23.40;74.80;;;;;;5054689;28;20029;-70
2023/05/27 12:29:16;;;;;;;7.25;5.18;;;23.40;74.20;;;;;;5054275;28;20033;-69
2023/05/27 12:31:42;;;;;;;9.68;5.47;;;23.40;75.50;;;;;;5054096;28;20025;-70
2023/05/27 12:34:08;;;;;;;11.38;5.72;;;23.50;78.30;;;;;;5054348;28;20024;-70
2023/05/27 12:36:33;;;;;;;8.30;5.10;;;23.60;73.80;;;;;;5061067;28;20480;-70
2023/05/27 12:38:59;;;;;;;11.90;5.70;;;23.50;74.20;;;;;;5054647;28;20043;-70
2023/05/27 12:41:26;;;;;;;9.15;5.20;;;23.50;79.70;;;;;;5037300;28;20036;-70
2023/05/27 12:43:51;;;;;;;7.10;4.72;;;23.50;72.40;;;;;;5071430;28;20039;-70
2023/05/27 12:46:17;;;;;;;9.23;5.82;;;23.50;74.20;;;;;;5073866;28;20028;-70
2023/05/27 12:48:43;;;;;;;11.40;5.40;;;23.60;75.70;;;;;;5073770;28;20427;-69